sensor_id;sensor_type;location;lat;lon;timestamp;pressure;altitude;pressure_sealevel;temperature;humidity
56084;BME280;41958;52.416;13.428;2022-12-18T00:00:59;102695.53;;;-5.28;98.49
56084;BME280;41958;52.416;13.428;2022-12-18T00:03:25;102704.81;;;-5.44;97.64
56084;BME280;41958;52.416;13.428;2022-12-18T00:05:51;102700.38;;;-5.45;98.33
56084;BME280;41958;52.416;13.428;2022-12-18T00:08:16;102691.69;;;-5.55;99.05
56084;BME280;41958;52.416;13.428;2022-12-18T00:10:42;102702.44;;;-5.47;98.92
56084;BME280;41958;52.416;13.428;2022-12-18T00:13:08;102702.78;;;-5.35;99.46
56084;BME280;41958;52.416;13.428;2022-12-18T00:15:34;102712.72;;;-5.27;98.97
56084;BME280;41958;52.416;13.428;2022-12-18T00:18:00;102712.06;;;-5.29;98.45
56084;BME280;41958;52.416;13.428;2022-12-18T00:20:25;102706.75;;;-5.37;98.33
56084;BME280;41958;52.416;13.428;2022-12-18T00:22:54;102708.09;;;-5.27;98.28
56084;BME280;41958;52.416;13.428;2022-12-18T00:25:20;102702.03;;;-5.29;98.08
56084;BME280;41958;52.416;13.428;2022-12-18T00:27:45;102706.69;;;-5.22;96.94
56084;BME280;41958;52.416;13.428;2022-12-18T00:30:10;102708.84;;;-5.39;96.64
56084;BME280;41958;52.416;13.428;2022-12-18T00:32:36;102705.06;;;-5.38;97.29
56084;BME280;41958;52.416;13.428;2022-12-18T00:35:02;102700.19;;;-5.43;96.21
56084;BME280;41958;52.416;13.428;2022-12-18T00:37:27;102700.06;;;-5.35;96.84
56084;BME280;41958;52.416;13.428;2022-12-18T00:39:53;102697.00;;;-5.25;97.18
56084;BME280;41958;52.416;13.428;2022-12-18T00:42:18;102698.28;;;-5.21;97.28
56084;BME280;41958;52.416;13.428;2022-12-18T00:45:02;102702.91;;;-5.43;97.08
56084;BME280;41958;52.416;13.428;2022-12-18T00:47:28;102704.81;;;-5.44;96.97
56084;BME280;41958;52.416;13.428;2022-12-18T00:49:53;102693.13;;;-5.37;97.26
56084;BME280;41958;52.416;13.428;2022-12-18T00:52:18;102699.94;;;-5.48;97.40
56084;BME280;41958;52.416;13.428;2022-12-18T00:54:43;102708.50;;;-5.51;97.50
56084;BME280;41958;52.416;13.428;2022-12-18T00:57:08;102696.22;;;-5.62;97.21
56084;BME280;41958;52.416;13.428;2022-12-18T00:59:34;102698.13;;;-5.63;97.76
56084;BME280;41958;52.416;13.428;2022-12-18T01:01:59;102699.41;;;-5.59;97.88
56084;BME280;41958;52.416;13.428;2022-12-18T01:04:24;102680.34;;;-5.59;98.17
56084;BME280;41958;52.416;13.428;2022-12-18T01:06:49;102693.44;;;-5.47;98.04
56084;BME280;41958;52.416;13.428;2022-12-18T01:09:15;102684.31;;;-5.39;97.34
56084;BME280;41958;52.416;13.428;2022-12-18T01:11:40;102702.41;;;-5.53;97.11
56084;BME280;41958;52.416;13.428;2022-12-18T01:14:05;102703.44;;;-5.54;96.81
56084;BME280;41958;52.416;13.428;2022-12-18T01:16:30;102702.69;;;-5.63;96.64
56084;BME280;41958;52.416;13.428;2022-12-18T01:18:56;102702.41;;;-5.53;97.32
56084;BME280;41958;52.416;13.428;2022-12-18T01:21:23;102714.13;;;-5.53;96.70
56084;BME280;41958;52.416;13.428;2022-12-18T01:23:53;102724.75;;;-5.58;97.01
56084;BME280;41958;52.416;13.428;2022-12-18T01:26:19;102710.72;;;-5.77;96.93
56084;BME280;41958;52.416;13.428;2022-12-18T01:28:44;102721.97;;;-5.65;96.84
56084;BME280;41958;52.416;13.428;2022-12-18T01:31:16;102722.81;;;-5.64;96.02
56084;BME280;41958;52.416;13.428;2022-12-18T01:33:41;102726.94;;;-5.68;95.67
56084;BME280;41958;52.416;13.428;2022-12-18T01:36:07;102732.50;;;-5.77;96.47
56084;BME280;41958;52.416;13.428;2022-12-18T01:38:33;102736.91;;;-5.76;96.76
56084;BME280;41958;52.416;13.428;2022-12-18T01:40:59;102730.25;;;-5.73;97.71
56084;BME280;41958;52.416;13.428;2022-12-18T01:43:51;102728.72;;;-5.61;97.32
56084;BME280;41958;52.416;13.428;2022-12-18T01:46:18;102724.13;;;-5.60;97.15
56084;BME280;41958;52.416;13.428;2022-12-18T01:48:48;102732.31;;;-5.60;97.53
56084;BME280;41958;52.416;13.428;2022-12-18T01:51:15;102731.75;;;-5.70;97.46
56084;BME280;41958;52.416;13.428;2022-12-18T01:53:42;102737.19;;;-5.70;97.42
56084;BME280;41958;52.416;13.428;2022-12-18T01:56:12;102744.16;;;-5.68;97.44
56084;BME280;41958;52.416;13.428;2022-12-18T01:58:48;102735.38;;;-5.63;96.97
56084;BME280;41958;52.416;13.428;2022-12-18T02:01:16;102736.88;;;-5.61;97.19
56084;BME280;41958;52.416;13.428;2022-12-18T02:03:42;102742.22;;;-5.52;97.48
56084;BME280;41958;52.416;13.428;2022-12-18T02:06:23;102737.22;;;-5.49;97.03
56084;BME280;41958;52.416;13.428;2022-12-18T02:09:13;102739.41;;;-5.59;97.00
56084;BME280;41958;52.416;13.428;2022-12-18T02:17:42;102746.91;;;-5.83;97.24
56084;BME280;41958;52.416;13.428;2022-12-18T02:20:20;102749.97;;;-5.71;97.81
56084;BME280;41958;52.416;13.428;2022-12-18T02:23:12;102748.47;;;-5.73;97.15
56084;BME280;41958;52.416;13.428;2022-12-18T02:26:10;102745.16;;;-5.69;97.21
56084;BME280;41958;52.416;13.428;2022-12-18T02:28:46;102743.78;;;-5.80;97.11
56084;BME280;41958;52.416;13.428;2022-12-18T02:31:18;102752.72;;;-5.71;97.87
56084;BME280;41958;52.416;13.428;2022-12-18T02:33:47;102745.75;;;-5.73;97.40
56084;BME280;41958;52.416;13.428;2022-12-18T02:36:16;102747.53;;;-5.81;97.56
56084;BME280;41958;52.416;13.428;2022-12-18T02:38:43;102746.19;;;-5.70;97.78
56084;BME280;41958;52.416;13.428;2022-12-18T02:41:10;102771.66;;;-5.63;97.38
56084;BME280;41958;52.416;13.428;2022-12-18T02:43:36;102772.88;;;-5.65;96.95
56084;BME280;41958;52.416;13.428;2022-12-18T02:46:43;102773.78;;;-5.58;96.98
56084;BME280;41958;52.416;13.428;2022-12-18T02:57:55;102769.00;;;-5.56;95.41
56084;BME280;41958;52.416;13.428;2022-12-18T03:00:37;102755.56;;;-5.57;96.07
56084;BME280;41958;52.416;13.428;2022-12-18T03:03:10;102760.72;;;-5.48;95.65
56084;BME280;41958;52.416;13.428;2022-12-18T03:05:41;102766.81;;;-5.46;95.21
56084;BME280;41958;52.416;13.428;2022-12-18T03:08:18;102760.81;;;-5.41;95.75
56084;BME280;41958;52.416;13.428;2022-12-18T03:10:50;102766.19;;;-5.48;95.42
56084;BME280;41958;52.416;13.428;2022-12-18T03:13:21;102760.38;;;-5.60;95.84
56084;BME280;41958;52.416;13.428;2022-12-18T03:15:51;102763.69;;;-5.64;95.69
56084;BME280;41958;52.416;13.428;2022-12-18T03:18:21;102763.69;;;-5.64;95.41
56084;BME280;41958;52.416;13.428;2022-12-18T03:20:51;102776.16;;;-5.70;95.62
56084;BME280;41958;52.416;13.428;2022-12-18T03:23:21;102772.88;;;-5.65;95.84
56084;BME280;41958;52.416;13.428;2022-12-18T03:25:51;102775.81;;;-5.67;96.11
56084;BME280;41958;52.416;13.428;2022-12-18T03:28:21;102769.16;;;-5.79;95.85
56084;BME280;41958;52.416;13.428;2022-12-18T03:30:50;102764.25;;;-5.84;95.54
56084;BME280;41958;52.416;13.428;2022-12-18T03:33:21;102782.09;;;-5.81;95.93
56084;BME280;41958;52.416;13.428;2022-12-18T03:35:49;102763.94;;;-6.11;94.98
56084;BME280;41958;52.416;13.428;2022-12-18T03:38:14;102777.69;;;-5.82;95.29
56084;BME280;41958;52.416;13.428;2022-12-18T03:40:45;102791.28;;;-5.82;94.93
56084;BME280;41958;52.416;13.428;2022-12-18T03:43:40;102780.41;;;-5.97;95.10
56084;BME280;41958;52.416;13.428;2022-12-18T03:46:15;102774.31;;;-5.84;95.84
56084;BME280;41958;52.416;13.428;2022-12-18T03:48:46;102761.78;;;-6.00;95.80
56084;BME280;41958;52.416;13.428;2022-12-18T03:51:22;102768.00;;;-5.85;95.69
56084;BME280;41958;52.416;13.428;2022-12-18T03:53:58;102768.09;;;-5.78;95.35
56084;BME280;41958;52.416;13.428;2022-12-18T03:56:28;102770.00;;;-5.79;95.80
56084;BME280;41958;52.416;13.428;2022-12-18T03:58:56;102777.03;;;-5.84;94.97
56084;BME280;41958;52.416;13.428;2022-12-18T04:01:29;102784.53;;;-5.86;96.52
56084;BME280;41958;52.416;13.428;2022-12-18T04:03:56;102775.06;;;-5.90;95.88
56084;BME280;41958;52.416;13.428;2022-12-18T04:06:23;102766.81;;;-5.97;95.54
56084;BME280;41958;52.416;13.428;2022-12-18T04:08:49;102772.53;;;-5.92;96.25
56084;BME280;41958;52.416;13.428;2022-12-18T04:11:15;102771.34;;;-6.04;94.78
56084;BME280;41958;52.416;13.428;2022-12-18T04:13:42;102781.41;;;-6.05;95.08
56084;BME280;41958;52.416;13.428;2022-12-18T04:16:08;102780.25;;;-6.11;94.57
56084;BME280;41958;52.416;13.428;2022-12-18T04:18:34;102782.34;;;-6.28;95.61
56084;BME280;41958;52.416;13.428;2022-12-18T04:21:00;102788.59;;;-6.27;96.17
56084;BME280;41958;52.416;13.428;2022-12-18T04:23:26;102783.06;;;-6.19;95.65
56084;BME280;41958;52.416;13.428;2022-12-18T04:25:51;102781.56;;;-6.21;95.99
56084;BME280;41958;52.416;13.428;2022-12-18T04:28:16;102786.38;;;-6.23;95.93
56084;BME280;41958;52.416;13.428;2022-12-18T04:30:42;102800.47;;;-6.05;97.02
56084;BME280;41958;52.416;13.428;2022-12-18T04:33:10;102807.84;;;-6.14;96.65
56084;BME280;41958;52.416;13.428;2022-12-18T04:35:36;102801.38;;;-6.13;96.22
56084;BME280;41958;52.416;13.428;2022-12-18T04:38:01;102796.88;;;-6.20;96.76
56084;BME280;41958;52.416;13.428;2022-12-18T04:40:26;102802.31;;;-6.20;97.30
56084;BME280;41958;52.416;13.428;2022-12-18T04:42:51;102792.84;;;-6.24;97.47
56084;BME280;41958;52.416;13.428;2022-12-18T04:45:17;102800.47;;;-6.20;96.63
56084;BME280;41958;52.416;13.428;2022-12-18T04:47:42;102800.72;;;-6.15;96.16
56084;BME280;41958;52.416;13.428;2022-12-18T04:50:07;102808.16;;;-6.08;95.58
56084;BME280;41958;52.416;13.428;2022-12-18T04:52:33;102810.97;;;-6.17;95.85
56084;BME280;41958;52.416;13.428;2022-12-18T04:54:58;102811.50;;;-6.06;95.94
56084;BME280;41958;52.416;13.428;2022-12-18T04:57:23;102803.91;;;-6.11;95.77
56084;BME280;41958;52.416;13.428;2022-12-18T04:59:48;102811.41;;;-6.13;96.01
56084;BME280;41958;52.416;13.428;2022-12-18T05:02:14;102812.28;;;-6.13;96.21
56084;BME280;41958;52.416;13.428;2022-12-18T05:04:39;102815.09;;;-6.21;96.72
56084;BME280;41958;52.416;13.428;2022-12-18T05:07:04;102796.13;;;-6.29;97.27
56084;BME280;41958;52.416;13.428;2022-12-18T05:09:29;102802.03;;;-6.25;98.08
56084;BME280;41958;52.416;13.428;2022-12-18T05:11:54;102800.38;;;-6.12;97.99
56084;BME280;41958;52.416;13.428;2022-12-18T05:14:20;102799.38;;;-6.34;97.03
56084;BME280;41958;52.416;13.428;2022-12-18T05:16:45;102805.50;;;-6.32;97.04
56084;BME280;41958;52.416;13.428;2022-12-18T05:19:10;102817.13;;;-6.23;97.37
56084;BME280;41958;52.416;13.428;2022-12-18T05:21:36;102809.25;;;-6.33;97.33
56084;BME280;41958;52.416;13.428;2022-12-18T05:24:01;102822.13;;;-6.12;97.48
56084;BME280;41958;52.416;13.428;2022-12-18T05:26:26;102832.56;;;-6.00;96.99
56084;BME280;41958;52.416;13.428;2022-12-18T05:28:51;102817.13;;;-6.23;96.61
56084;BME280;41958;52.416;13.428;2022-12-18T05:31:17;102826.78;;;-6.35;96.88
56084;BME280;41958;52.416;13.428;2022-12-18T05:33:42;102825.88;;;-6.28;97.58
56084;BME280;41958;52.416;13.428;2022-12-18T05:36:09;102824.56;;;-6.32;97.98
56084;BME280;41958;52.416;13.428;2022-12-18T05:38:36;102833.28;;;-6.06;97.34
56084;BME280;41958;52.416;13.428;2022-12-18T05:41:02;102837.50;;;-6.19;96.67
56084;BME280;41958;52.416;13.428;2022-12-18T05:43:28;102837.59;;;-6.27;97.47
56084;BME280;41958;52.416;13.428;2022-12-18T05:45:53;102838.63;;;-6.13;97.62
56084;BME280;41958;52.416;13.428;2022-12-18T05:48:19;102851.03;;;-6.11;97.15
56084;BME280;41958;52.416;13.428;2022-12-18T05:50:47;102854.31;;;-6.15;96.42
56084;BME280;41958;52.416;13.428;2022-12-18T05:53:14;102841.34;;;-6.13;96.18
56084;BME280;41958;52.416;13.428;2022-12-18T05:55:40;102846.16;;;-6.00;96.69
56084;BME280;41958;52.416;13.428;2022-12-18T05:58:08;102828.13;;;-6.16;96.14
56084;BME280;41958;52.416;13.428;2022-12-18T06:00:35;102851.22;;;-6.12;96.54
56084;BME280;41958;52.416;13.428;2022-12-18T06:03:01;102853.22;;;-6.06;97.59
56084;BME280;41958;52.416;13.428;2022-12-18T06:05:27;102856.56;;;-6.04;96.97
56084;BME280;41958;52.416;13.428;2022-12-18T06:07:52;102864.81;;;-6.12;97.05
56084;BME280;41958;52.416;13.428;2022-12-18T06:10:17;102861.06;;;-6.11;97.51
56084;BME280;41958;52.416;13.428;2022-12-18T06:12:43;102861.81;;;-6.02;97.22
56084;BME280;41958;52.416;13.428;2022-12-18T06:15:08;102869.53;;;-6.06;96.39
56084;BME280;41958;52.416;13.428;2022-12-18T06:17:35;102869.31;;;-6.19;96.94
56084;BME280;41958;52.416;13.428;2022-12-18T06:20:01;102865.69;;;-6.12;96.44
56084;BME280;41958;52.416;13.428;2022-12-18T06:22:27;102859.28;;;-6.04;96.54
56084;BME280;41958;52.416;13.428;2022-12-18T06:24:52;102880.88;;;-6.02;97.04
56084;BME280;41958;52.416;13.428;2022-12-18T06:27:17;102875.53;;;-6.11;96.82
56084;BME280;41958;52.416;13.428;2022-12-18T06:29:43;102882.38;;;-6.15;96.82
56084;BME280;41958;52.416;13.428;2022-12-18T06:32:08;102879.84;;;-6.01;97.28
56084;BME280;41958;52.416;13.428;2022-12-18T06:34:34;102879.22;;;-6.03;97.17
56084;BME280;41958;52.416;13.428;2022-12-18T06:37:00;102882.75;;;-6.18;97.26
56084;BME280;41958;52.416;13.428;2022-12-18T06:39:28;102883.78;;;-6.04;97.71
56084;BME280;41958;52.416;13.428;2022-12-18T06:41:53;102868.19;;;-6.25;97.54
56084;BME280;41958;52.416;13.428;2022-12-18T06:44:19;102884.34;;;-6.08;97.87
56084;BME280;41958;52.416;13.428;2022-12-18T06:46:44;102895.06;;;-6.07;97.59
56084;BME280;41958;52.416;13.428;2022-12-18T06:49:09;102901.22;;;-6.13;98.52
56084;BME280;41958;52.416;13.428;2022-12-18T06:51:35;102905.75;;;-6.05;98.35
56084;BME280;41958;52.416;13.428;2022-12-18T06:54:00;102913.28;;;-6.07;98.53
56084;BME280;41958;52.416;13.428;2022-12-18T06:56:26;102912.22;;;-6.06;98.84
56084;BME280;41958;52.416;13.428;2022-12-18T06:58:51;102916.84;;;-5.92;98.66
56084;BME280;41958;52.416;13.428;2022-12-18T07:01:16;102916.84;;;-5.77;98.82
56084;BME280;41958;52.416;13.428;2022-12-18T07:03:42;102920.78;;;-5.80;98.00
56084;BME280;41958;52.416;13.428;2022-12-18T07:06:13;102917.31;;;-5.88;98.60
56084;BME280;41958;52.416;13.428;2022-12-18T07:08:39;102917.88;;;-5.78;98.51
56084;BME280;41958;52.416;13.428;2022-12-18T07:11:05;102900.97;;;-5.88;98.28
56084;BME280;41958;52.416;13.428;2022-12-18T07:13:30;102906.25;;;-5.72;98.52
56084;BME280;41958;52.416;13.428;2022-12-18T07:16:03;102905.94;;;-5.77;98.89
56084;BME280;41958;52.416;13.428;2022-12-18T07:18:29;102885.47;;;-5.88;98.51
56084;BME280;41958;52.416;13.428;2022-12-18T07:20:54;102912.63;;;-5.65;98.65
56084;BME280;41958;52.416;13.428;2022-12-18T07:23:19;102914.22;;;-5.70;98.55
56084;BME280;41958;52.416;13.428;2022-12-18T07:25:44;102914.97;;;-5.62;98.41
56084;BME280;41958;52.416;13.428;2022-12-18T07:28:09;102921.56;;;-5.56;97.35
56084;BME280;41958;52.416;13.428;2022-12-18T07:30:37;102915.16;;;-5.63;96.44
56084;BME280;41958;52.416;13.428;2022-12-18T07:33:03;102914.03;;;-5.69;96.82
56084;BME280;41958;52.416;13.428;2022-12-18T07:35:28;102914.41;;;-5.72;96.80
56084;BME280;41958;52.416;13.428;2022-12-18T07:37:53;102915.84;;;-5.61;98.31
56084;BME280;41958;52.416;13.428;2022-12-18T07:40:18;102917.31;;;-5.88;98.34
56084;BME280;41958;52.416;13.428;2022-12-18T07:42:44;102913.47;;;-5.79;98.90
56084;BME280;41958;52.416;13.428;2022-12-18T07:45:09;102912.44;;;-5.78;98.97
56084;BME280;41958;52.416;13.428;2022-12-18T07:47:35;102922.00;;;-5.82;98.99
56084;BME280;41958;52.416;13.428;2022-12-18T07:50:06;102916.03;;;-5.63;99.06
56084;BME280;41958;52.416;13.428;2022-12-18T07:52:31;102916.38;;;-5.51;98.15
56084;BME280;41958;52.416;13.428;2022-12-18T07:54:57;102920.91;;;-5.58;98.04
56084;BME280;41958;52.416;13.428;2022-12-18T07:57:22;102913.09;;;-5.61;98.24
56084;BME280;41958;52.416;13.428;2022-12-18T07:59:47;102913.56;;;-5.43;98.09
56084;BME280;41958;52.416;13.428;2022-12-18T08:02:12;102910.81;;;-5.43;97.86
56084;BME280;41958;52.416;13.428;2022-12-18T08:04:38;102913.84;;;-5.52;97.21
56084;BME280;41958;52.416;13.428;2022-12-18T08:07:03;102902.75;;;-5.51;97.30
56084;BME280;41958;52.416;13.428;2022-12-18T08:09:28;102913.94;;;-5.61;97.37
56084;BME280;41958;52.416;13.428;2022-12-18T08:11:53;102918.47;;;-5.53;97.73
56084;BME280;41958;52.416;13.428;2022-12-18T08:14:19;102919.50;;;-5.54;97.59
56084;BME280;41958;52.416;13.428;2022-12-18T08:16:44;102931.50;;;-5.48;97.23
56084;BME280;41958;52.416;13.428;2022-12-18T08:19:09;102929.25;;;-5.45;97.43
56084;BME280;41958;52.416;13.428;2022-12-18T08:21:35;102921.81;;;-5.36;97.06
56084;BME280;41958;52.416;13.428;2022-12-18T08:24:01;102933.31;;;-5.40;96.53
56084;BME280;41958;52.416;13.428;2022-12-18T08:26:28;102938.38;;;-5.52;96.15
56084;BME280;41958;52.416;13.428;2022-12-18T08:28:55;102938.00;;;-5.64;97.51
56084;BME280;41958;52.416;13.428;2022-12-18T08:31:21;102937.13;;;-5.65;97.24
56084;BME280;41958;52.416;13.428;2022-12-18T08:33:50;102930.00;;;-5.51;97.52
56084;BME280;41958;52.416;13.428;2022-12-18T08:36:16;102930.75;;;-5.57;97.04
56084;BME280;41958;52.416;13.428;2022-12-18T08:38:42;102940.16;;;-5.60;97.19
56084;BME280;41958;52.416;13.428;2022-12-18T08:41:10;102939.78;;;-5.42;98.05
56084;BME280;41958;52.416;13.428;2022-12-18T08:43:36;102940.63;;;-5.56;97.44
56084;BME280;41958;52.416;13.428;2022-12-18T08:46:21;102944.09;;;-5.47;97.37
56084;BME280;41958;52.416;13.428;2022-12-18T08:48:48;102943.38;;;-5.26;96.97
56084;BME280;41958;52.416;13.428;2022-12-18T08:51:16;102944.56;;;-5.29;96.73
56084;BME280;41958;52.416;13.428;2022-12-18T08:53:41;102949.66;;;-5.26;97.28
56084;BME280;41958;52.416;13.428;2022-12-18T08:56:07;102954.25;;;-5.26;97.59
56084;BME280;41958;52.416;13.428;2022-12-18T08:58:32;102956.50;;;-5.15;97.19
56084;BME280;41958;52.416;13.428;2022-12-18T09:01:02;102979.72;;;-5.19;97.43
56084;BME280;41958;52.416;13.428;2022-12-18T09:03:28;102983.03;;;-5.09;97.71
56084;BME280;41958;52.416;13.428;2022-12-18T09:05:53;102978.13;;;-5.13;96.64
56084;BME280;41958;52.416;13.428;2022-12-18T09:08:18;102981.41;;;-5.18;97.44
56084;BME280;41958;52.416;13.428;2022-12-18T09:10:45;102976.72;;;-5.24;97.44
56084;BME280;41958;52.416;13.428;2022-12-18T09:13:11;102975.09;;;-5.18;97.51
56084;BME280;41958;52.416;13.428;2022-12-18T09:15:47;102983.38;;;-5.12;98.18
56084;BME280;41958;52.416;13.428;2022-12-18T09:18:15;102983.09;;;-5.17;98.31
56084;BME280;41958;52.416;13.428;2022-12-18T09:20:41;102975.28;;;-5.05;98.68
56084;BME280;41958;52.416;13.428;2022-12-18T09:23:07;102979.78;;;-4.97;98.07
56084;BME280;41958;52.416;13.428;2022-12-18T09:25:33;102990.13;;;-5.08;98.70
56084;BME280;41958;52.416;13.428;2022-12-18T09:28:00;102977.19;;;-5.05;99.80
56084;BME280;41958;52.416;13.428;2022-12-18T09:30:27;102991.63;;;-4.90;99.77
56084;BME280;41958;52.416;13.428;2022-12-18T09:32:55;102987.19;;;-4.91;99.05
56084;BME280;41958;52.416;13.428;2022-12-18T09:35:20;102991.19;;;-4.94;98.91
56084;BME280;41958;52.416;13.428;2022-12-18T09:37:46;102990.31;;;-4.94;99.09
56084;BME280;41958;52.416;13.428;2022-12-18T09:40:16;102987.97;;;-4.82;98.85
56084;BME280;41958;52.416;13.428;2022-12-18T09:42:45;102979.78;;;-4.82;98.72
56084;BME280;41958;52.416;13.428;2022-12-18T09:45:13;102968.03;;;-4.83;98.90
56084;BME280;41958;52.416;13.428;2022-12-18T09:47:41;102955.78;;;-4.72;98.94
56084;BME280;41958;52.416;13.428;2022-12-18T09:50:30;102961.78;;;-4.77;98.49
56084;BME280;41958;52.416;13.428;2022-12-18T09:52:59;102950.91;;;-4.55;99.21
56084;BME280;41958;52.416;13.428;2022-12-18T09:55:33;102958.56;;;-4.44;99.15
56084;BME280;41958;52.416;13.428;2022-12-18T09:58:06;102957.16;;;-4.40;98.35
56084;BME280;41958;52.416;13.428;2022-12-18T10:00:43;102943.63;;;-4.48;98.62
56084;BME280;41958;52.416;13.428;2022-12-18T10:03:13;102934.94;;;-4.36;99.23
56084;BME280;41958;52.416;13.428;2022-12-18T10:06:26;102918.28;;;-4.20;97.89
56084;BME280;41958;52.416;13.428;2022-12-18T10:09:04;102917.97;;;-4.32;97.10
56084;BME280;41958;52.416;13.428;2022-12-18T10:11:54;102913.41;;;-4.25;97.71
56084;BME280;41958;52.416;13.428;2022-12-18T10:14:35;102918.66;;;-4.01;98.11
56084;BME280;41958;52.416;13.428;2022-12-18T10:19:54;102904.44;;;-4.18;97.29
56084;BME280;41958;52.416;13.428;2022-12-18T10:25:50;102921.81;;;-3.98;98.10
56084;BME280;41958;52.416;13.428;2022-12-18T10:28:18;102913.44;;;-3.96;97.75
56084;BME280;41958;52.416;13.428;2022-12-18T10:30:44;102905.34;;;-3.83;97.78
56084;BME280;41958;52.416;13.428;2022-12-18T10:33:18;102902.59;;;-3.83;97.38
56084;BME280;41958;52.416;13.428;2022-12-18T10:35:45;102904.38;;;-3.68;96.66
56084;BME280;41958;52.416;13.428;2022-12-18T10:41:02;102892.63;;;-3.62;96.45
56084;BME280;41958;52.416;13.428;2022-12-18T10:43:32;102899.59;;;-3.60;95.63
56084;BME280;41958;52.416;13.428;2022-12-18T10:48:40;102887.41;;;-3.57;95.86
56084;BME280;41958;52.416;13.428;2022-12-18T10:53:52;102875.63;;;-3.64;96.74
56084;BME280;41958;52.416;13.428;2022-12-18T10:56:20;102884.84;;;-3.65;96.82
56084;BME280;41958;52.416;13.428;2022-12-18T10:58:57;102874.63;;;-3.57;97.25
56084;BME280;41958;52.416;13.428;2022-12-18T11:01:23;102878.84;;;-3.47;96.95
56084;BME280;41958;52.416;13.428;2022-12-18T11:06:22;102874.66;;;-3.85;96.46
56084;BME280;41958;52.416;13.428;2022-12-18T11:11:24;102872.31;;;-3.88;98.43
56084;BME280;41958;52.416;13.428;2022-12-18T11:13:59;102880.50;;;-3.88;98.50
56084;BME280;41958;52.416;13.428;2022-12-18T11:16:26;102879.22;;;-3.92;98.68
56084;BME280;41958;52.416;13.428;2022-12-18T11:18:53;102880.81;;;-4.04;98.40
56084;BME280;41958;52.416;13.428;2022-12-18T11:21:18;102875.25;;;-3.90;98.08
56084;BME280;41958;52.416;13.428;2022-12-18T11:23:50;102866.06;;;-3.82;98.35
56084;BME280;41958;52.416;13.428;2022-12-18T11:26:16;102869.66;;;-3.75;98.23
56084;BME280;41958;52.416;13.428;2022-12-18T11:28:47;102873.69;;;-3.70;98.34
56084;BME280;41958;52.416;13.428;2022-12-18T11:31:26;102857.78;;;-3.60;97.72
56084;BME280;41958;52.416;13.428;2022-12-18T11:34:28;102871.63;;;-3.62;96.94
56084;BME280;41958;52.416;13.428;2022-12-18T11:36:58;102862.53;;;-3.76;97.71
56084;BME280;41958;52.416;13.428;2022-12-18T11:39:35;102877.94;;;-3.61;98.37
56084;BME280;41958;52.416;13.428;2022-12-18T11:42:04;102876.31;;;-3.84;97.94
56084;BME280;41958;52.416;13.428;2022-12-18T11:45:02;102866.13;;;-3.68;98.37
56084;BME280;41958;52.416;13.428;2022-12-18T11:47:42;102861.50;;;-3.68;98.07
56084;BME280;41958;52.416;13.428;2022-12-18T11:50:25;102874.34;;;-3.68;97.65
56084;BME280;41958;52.416;13.428;2022-12-18T11:52:51;102877.22;;;-3.77;98.33
56084;BME280;41958;52.416;13.428;2022-12-18T11:58:00;102876.94;;;-3.88;97.86
56084;BME280;41958;52.416;13.428;2022-12-18T12:00:28;102884.28;;;-3.89;98.05
56084;BME280;41958;52.416;13.428;2022-12-18T12:03:19;102894.41;;;-3.83;97.81
56084;BME280;41958;52.416;13.428;2022-12-18T12:06:08;102890.53;;;-3.67;97.77
56084;BME280;41958;52.416;13.428;2022-12-18T12:09:16;102891.34;;;-3.66;97.31
56084;BME280;41958;52.416;13.428;2022-12-18T12:14:42;102890.84;;;-3.48;96.83
56084;BME280;41958;52.416;13.428;2022-12-18T12:19:56;102895.69;;;-3.79;97.50
56084;BME280;41958;52.416;13.428;2022-12-18T12:22:32;102899.22;;;-3.57;97.32
56084;BME280;41958;52.416;13.428;2022-12-18T12:25:27;102896.34;;;-3.42;97.05
56084;BME280;41958;52.416;13.428;2022-12-18T12:33:27;102908.28;;;-3.49;97.59
56084;BME280;41958;52.416;13.428;2022-12-18T12:36:08;102906.59;;;-3.50;97.48
56084;BME280;41958;52.416;13.428;2022-12-18T12:38:46;102917.72;;;-3.52;98.91
56084;BME280;41958;52.416;13.428;2022-12-18T12:41:18;102922.38;;;-3.52;98.41
56084;BME280;41958;52.416;13.428;2022-12-18T12:44:07;102922.47;;;-3.67;97.32
56084;BME280;41958;52.416;13.428;2022-12-18T12:46:37;102918.34;;;-3.57;99.10
56084;BME280;41958;52.416;13.428;2022-12-18T12:49:04;102915.16;;;-3.60;98.75
56084;BME280;41958;52.416;13.428;2022-12-18T12:51:35;102912.25;;;-3.52;97.47
56084;BME280;41958;52.416;13.428;2022-12-18T12:54:08;102900.75;;;-3.41;97.11
56084;BME280;41958;52.416;13.428;2022-12-18T12:59:35;102891.47;;;-3.46;97.25
56084;BME280;41958;52.416;13.428;2022-12-18T13:02:20;102884.34;;;-3.41;97.33
56084;BME280;41958;52.416;13.428;2022-12-18T13:04:55;102871.53;;;-3.40;97.32
56084;BME280;41958;52.416;13.428;2022-12-18T13:07:29;102875.53;;;-3.43;96.85
56084;BME280;41958;52.416;13.428;2022-12-18T13:12:55;102870.81;;;-3.56;98.81
56084;BME280;41958;52.416;13.428;2022-12-18T13:15:23;102866.88;;;-3.81;98.24
56084;BME280;41958;52.416;13.428;2022-12-18T13:18:03;102858.94;;;-3.76;99.49
56084;BME280;41958;52.416;13.428;2022-12-18T13:25:55;102862.94;;;-3.72;97.75
56084;BME280;41958;52.416;13.428;2022-12-18T13:31:00;102869.66;;;-3.75;98.19
56084;BME280;41958;52.416;13.428;2022-12-18T13:36:08;102865.88;;;-3.74;98.56
56084;BME280;41958;52.416;13.428;2022-12-18T13:38:36;102861.25;;;-3.73;98.08
56084;BME280;41958;52.416;13.428;2022-12-18T13:41:02;102857.69;;;-3.74;97.82
56084;BME280;41958;52.416;13.428;2022-12-18T13:43:30;102853.50;;;-3.69;98.02
56084;BME280;41958;52.416;13.428;2022-12-18T13:46:05;102867.53;;;-3.79;98.42
56084;BME280;41958;52.416;13.428;2022-12-18T13:48:34;102872.06;;;-3.58;98.55
56084;BME280;41958;52.416;13.428;2022-12-18T13:51:06;102857.34;;;-3.57;98.02
56084;BME280;41958;52.416;13.428;2022-12-18T13:53:33;102842.47;;;-3.48;96.99
56084;BME280;41958;52.416;13.428;2022-12-18T13:56:02;102848.00;;;-3.34;96.42